Time;durP1;ratioP1;P1;durP2;ratioP2;P2;SDS_P1;SDS_P2;PMS_P1;PMS_P2;Temp;Humidity;BMP_temperature;BMP_pressure;BME280_temperature;BME280_humidity;BME280_pressure;Samples;Min_cycle;Max_cycle;Signal;HPM_P1;HPM_P2
2021/12/24 00:01:19;;;;;;;15.32;7.80;;;;;;;-7.23;53.39;100625.52;1666395;84;21492;-64
2021/12/24 00:03:46;;;;;;;14.63;7.28;;;;;;;-7.24;53.53;100621.28;1659635;84;21106;-65
2021/12/24 00:06:12;;;;;;;15.05;7.35;;;;;;;-7.22;53.59;100621.69;1666938;84;21090;-65
2021/12/24 00:08:39;;;;;;;14.35;7.47;;;;;;;-7.20;53.49;100616.56;1665185;84;21550;-64
2021/12/24 00:11:06;;;;;;;15.58;6.83;;;;;;;-7.22;53.41;100604.22;1664014;84;21549;-64
2021/12/24 00:13:38;;;;;;;15.70;7.92;;;;;;;-7.25;53.43;100615.73;1669178;84;21027;-62
2021/12/24 00:16:17;;;;;;;13.93;6.90;;;;;;;-7.31;53.54;100605.95;1665146;84;21087;-63
2021/12/24 00:35:12;;;;;;;11.83;6.53;;;;;;;-7.39;53.76;100568.05;1663678;84;21120;-63
2021/12/24 00:37:35;;;;;;;14.80;7.78;;;;;;;-7.39;53.86;100560.38;1663853;84;21095;-64
2021/12/24 00:42:34;;;;;;;19.77;7.87;;;;;;;-7.33;53.81;100549.27;1667386;84;21044;-63
2021/12/24 00:45:01;;;;;;;15.98;7.47;;;;;;;-7.33;53.71;100548.87;1683502;83;21045;-64
2021/12/24 00:47:27;;;;;;;14.15;8.18;;;;;;;-7.33;53.78;100544.16;1668565;84;21426;-64
2021/12/24 00:49:54;;;;;;;13.55;6.80;;;;;;;-7.32;53.74;100541.59;1650536;85;21151;-64
2021/12/24 00:56:46;;;;;;;13.50;7.28;;;;;;;-7.31;53.82;100524.14;1790740;78;22363;-63
2021/12/24 00:59:14;;;;;;;11.97;6.17;;;;;;;-7.36;53.84;100518.60;1712995;82;21059;-64
2021/12/24 01:01:40;;;;;;;12.15;5.92;;;;;;;-7.35;53.89;100519.88;1733365;81;21211;-64
2021/12/24 01:04:06;;;;;;;11.15;5.85;;;;;;;-7.34;53.77;100509.24;1695700;82;21174;-64
2021/12/24 01:06:33;;;;;;;11.75;5.83;;;;;;;-7.38;53.67;100506.27;1733482;80;21081;-64
2021/12/24 01:09:00;;;;;;;18.55;6.90;;;;;;;-7.45;53.88;100496.48;1681810;81;21583;-64
2021/12/24 01:11:27;;;;;;;11.48;5.62;;;;;;;-7.48;54.01;100493.94;1713746;82;21046;-64
2021/12/24 01:13:54;;;;;;;17.67;7.78;;;;;;;-7.48;54.21;100492.26;1713916;81;21953;-65
2021/12/24 01:16:28;;;;;;;16.17;7.33;;;;;;;-7.45;54.08;100482.43;1714032;82;21108;-63
2021/12/24 01:19:00;;;;;;;11.60;5.65;;;;;;;-7.49;54.09;100487.16;1684368;82;21058;-63
2021/12/24 01:21:38;;;;;;;10.28;6.12;;;;;;;-7.55;54.22;100479.50;1708787;81;21078;-64
2021/12/24 01:23:53;;;;;;;10.53;5.33;;;;;;;-7.59;54.30;100471.00;1709753;81;21057;-63
2021/12/24 01:26:43;;;;;;;13.25;5.87;;;;;;;-7.68;54.48;100462.95;1682143;82;21267;-63
2021/12/24 01:29:08;;;;;;;9.90;5.45;;;;;;;-7.74;54.64;100456.58;1677422;82;21629;-63
2021/12/24 01:44:54;;;;;;;13.80;6.33;;;;;;;-7.63;54.95;100410.95;1712669;82;20212;-64
2021/12/24 01:47:20;;;;;;;12.00;5.85;;;;;;;-7.62;55.18;100405.84;1715129;81;21129;-64
2021/12/24 01:49:47;;;;;;;12.10;6.35;;;;;;;-7.52;55.09;100402.38;1711664;81;21582;-64
2021/12/24 01:52:16;;;;;;;12.35;5.47;;;;;;;-7.41;55.01;100394.66;1703182;80;21749;-64
2021/12/24 01:54:44;;;;;;;14.40;6.00;;;;;;;-7.27;54.85;100395.01;1703146;81;21578;-64
2021/12/24 01:57:12;;;;;;;14.98;5.85;;;;;;;-7.18;54.63;100386.81;1753629;79;21090;-64
2021/12/24 01:59:40;;;;;;;10.75;5.70;;;;;;;-7.06;54.37;100383.75;1754210;79;21051;-64
2021/12/24 02:02:08;;;;;;;12.28;5.37;;;;;;;-7.02;54.10;100373.94;1736063;80;21063;-64
2021/12/24 02:04:34;;;;;;;14.70;6.83;;;;;;;-6.96;54.12;100373.86;1751482;80;21143;-64
2021/12/24 02:07:00;;;;;;;10.13;5.67;;;;;;;-6.89;53.89;100380.65;1731352;80;21075;-63
2021/12/24 02:09:27;;;;;;;10.08;5.60;;;;;;;-6.86;53.77;100370.80;1752965;79;21042;-64
2021/12/24 02:11:53;;;;;;;14.18;5.92;;;;;;;-6.82;53.47;100364.81;1752689;80;21067;-64
2021/12/24 02:14:23;;;;;;;11.08;5.65;;;;;;;-6.84;53.53;100358.84;1727981;80;21102;-64
2021/12/24 02:30:14;;;;;;;12.30;6.00;;;;;;;-6.84;53.70;100308.95;1749336;79;21390;-63
2021/12/24 02:32:42;;;;;;;12.37;5.42;;;;;;;-6.81;53.66;100299.52;1749850;79;21054;-63
2021/12/24 02:35:09;;;;;;;10.70;5.10;;;;;;;-6.71;53.49;100296.45;1740409;80;21422;-63
2021/12/24 02:37:37;;;;;;;13.85;5.08;;;;;;;-6.72;53.14;100290.94;1750991;80;21038;-63
2021/12/24 02:40:05;;;;;;;9.00;4.40;;;;;;;-6.76;53.33;100287.56;1751620;80;21087;-63
2021/12/24 02:42:33;;;;;;;10.88;5.70;;;;;;;-6.75;53.41;100283.28;1726112;80;21237;-63
2021/12/24 02:45:01;;;;;;;10.68;5.70;;;;;;;-6.70;53.38;100284.08;1750966;79;21078;-63
2021/12/24 02:47:43;;;;;;;10.70;4.92;;;;;;;-6.61;53.36;100279.28;1759190;79;21149;-63
2021/12/24 02:55:19;;;;;;;;;;;;;;;-6.57;52.75;100272.84;1754987;80;21765;-64
2021/12/24 02:57:45;;;;;;;9.03;4.83;;;;;;;-6.58;52.49;100261.34;1737895;80;20240;-62
2021/12/24 03:00:19;;;;;;;10.38;5.00;;;;;;;-6.66;52.75;100258.02;1735023;80;21105;-63
2021/12/24 03:02:46;;;;;;;10.32;4.37;;;;;;;-6.65;52.75;100257.16;1740843;80;21038;-63
2021/12/24 03:05:15;;;;;;;9.50;5.03;;;;;;;-6.66;52.72;100260.13;1747543;80;21126;-63
2021/12/24 03:07:42;;;;;;;13.30;6.62;;;;;;;-6.61;52.65;100248.56;1704891;82;21085;-63
2021/12/24 03:10:16;;;;;;;12.37;5.78;;;;;;;-6.63;52.51;100249.87;1735431;80;21051;-63
2021/12/24 03:12:45;;;;;;;11.15;5.62;;;;;;;-6.64;52.44;100243.48;1734566;80;20979;-63
2021/12/24 03:15:14;;;;;;;9.25;5.58;;;;;;;-6.74;52.52;100242.33;1739132;80;21046;-63
2021/12/24 03:17:51;;;;;;;10.30;5.47;;;;;;;-6.74;52.80;100239.77;1736456;80;21054;-63
2021/12/24 03:20:13;;;;;;;9.48;5.45;;;;;;;-6.72;52.73;100237.19;1739132;80;21138;-63
2021/12/24 03:25:15;;;;;;;13.30;5.67;;;;;;;-6.65;52.55;100226.45;1736636;80;21089;-63
2021/12/24 03:27:42;;;;;;;11.68;5.62;;;;;;;-6.66;52.42;100213.23;1714917;80;21051;-63
2021/12/24 03:30:10;;;;;;;11.45;5.78;;;;;;;-6.67;52.34;100211.52;1733617;80;21140;-63
2021/12/24 03:32:37;;;;;;;10.45;5.22;;;;;;;-6.69;52.40;100198.77;1715068;80;21829;-64
2021/12/24 03:35:04;;;;;;;11.73;5.83;;;;;;;-6.70;52.54;100197.52;1744383;80;21165;-63
2021/12/24 03:37:31;;;;;;;9.85;5.22;;;;;;;-6.69;52.41;100199.19;1746075;80;21023;-63
2021/12/24 03:39:58;;;;;;;10.75;5.55;;;;;;;-6.73;52.41;100184.30;1750369;80;21631;-63
2021/12/24 03:42:24;;;;;;;13.40;6.45;;;;;;;-6.74;52.42;100191.56;1742635;80;21058;-63
2021/12/24 03:44:58;;;;;;;11.12;5.33;;;;;;;-6.76;52.52;100180.50;1745150;80;21780;-63
2021/12/24 03:47:21;;;;;;;10.68;5.67;;;;;;;-6.79;52.57;100172.45;1741028;80;21015;-64
2021/12/24 03:52:39;;;;;;;11.93;6.05;;;;;;;-6.83;52.60;100167.38;1743545;80;21027;-64
2021/12/24 03:54:55;;;;;;;12.07;5.80;;;;;;;-6.81;52.73;100168.20;1717922;80;21137;-64
2021/12/24 03:57:32;;;;;;;9.78;5.55;;;;;;;-6.81;52.69;100162.64;1747688;80;21122;-64
2021/12/24 04:00:21;;;;;;;10.20;5.00;;;;;;;-6.77;52.75;100155.36;1755176;79;21470;-64
2021/12/24 04:02:49;;;;;;;15.18;6.85;;;;;;;-6.79;52.66;100151.11;1732949;80;21035;-64
2021/12/24 04:05:25;;;;;;;12.50;5.87;;;;;;;-6.80;52.61;100143.04;1748708;79;21066;-64
2021/12/24 04:07:53;;;;;;;9.83;5.35;;;;;;;-6.81;52.45;100137.50;1701088;80;21007;-63
2021/12/24 04:10:37;;;;;;;10.68;5.90;;;;;;;-6.87;52.58;100124.80;1751303;80;21164;-62
2021/12/24 04:13:12;;;;;;;11.60;6.28;;;;;;;-6.87;52.87;100123.08;1753489;80;21142;-63
2021/12/24 04:15:39;;;;;;;17.32;6.37;;;;;;;-6.85;52.79;100116.67;1754327;80;21022;-64
2021/12/24 04:18:17;;;;;;;13.58;6.15;;;;;;;-6.80;52.66;100112.34;1732912;80;21580;-64
2021/12/24 04:26:11;;;;;;;9.23;5.28;;;;;;;-6.76;52.78;100105.02;1710963;80;21054;-63
2021/12/24 04:28:37;;;;;;;12.28;6.47;;;;;;;-6.74;52.83;100093.04;1753725;80;21055;-62
2021/12/24 04:31:05;;;;;;;11.40;5.95;;;;;;;-6.72;52.70;100080.66;1750450;80;21094;-62
2021/12/24 04:33:38;;;;;;;10.20;5.58;;;;;;;-6.69;52.75;100070.82;1756961;80;21560;-63
2021/12/24 04:36:23;;;;;;;12.20;6.10;;;;;;;-6.71;52.64;100075.09;1745321;80;21218;-63
2021/12/24 05:03:09;;;;;;;9.85;5.20;;;;;;;-6.63;53.05;100043.00;1696965;80;21214;-63
2021/12/24 05:10:38;;;;;;;10.88;5.30;;;;;;;-6.72;53.06;100008.17;1756568;79;21638;-63
2021/12/24 05:13:09;;;;;;;11.03;5.40;;;;;;;-6.76;53.21;100008.66;1743916;80;21504;-68
2021/12/24 05:16:04;;;;;;;12.13;5.33;;;;;;;-6.78;53.47;100006.53;1729357;80;21046;-61
2021/12/24 05:21:33;;;;;;;9.35;5.17;;;;;;;-6.74;53.58;100003.48;1717317;79;20991;-62
2021/12/24 05:24:02;;;;;;;20.43;6.37;;;;;;;-6.71;53.85;99998.33;1747029;80;20999;-62
2021/12/24 05:26:29;;;;;;;12.90;6.78;;;;;;;-6.65;53.74;99994.84;1734664;80;21102;-62
2021/12/24 05:28:59;;;;;;;14.73;6.45;;;;;;;-6.59;53.66;99998.56;1757027;80;21128;-62
2021/12/24 05:31:26;;;;;;;12.60;5.37;;;;;;;-6.54;53.55;99995.50;1755027;79;20998;-65
2021/12/24 05:33:52;;;;;;;13.22;5.95;;;;;;;-6.48;53.57;99986.45;1755785;79;20935;-60
2021/12/24 05:36:21;;;;;;;11.38;5.67;;;;;;;-6.41;53.36;99986.74;1734829;80;21078;-64
2021/12/24 05:38:48;;;;;;;12.45;6.15;;;;;;;-6.34;53.43;99988.77;1758658;79;21457;-61
2021/12/24 05:41:16;;;;;;;15.88;5.85;;;;;;;-6.28;53.15;99984.00;1740430;80;21007;-61
2021/12/24 05:43:42;;;;;;;10.63;5.60;;;;;;;-6.27;53.12;99981.83;1757433;79;21004;-62
2021/12/24 05:46:09;;;;;;;9.15;5.20;;;;;;;-6.26;53.12;99972.84;1758616;79;21904;-62
2021/12/24 05:48:39;;;;;;;11.15;5.45;;;;;;;-6.26;53.12;99969.45;1719646;81;21055;-62
2021/12/24 05:51:08;;;;;;;11.30;6.15;;;;;;;-6.23;53.38;99968.95;1740547;80;20981;-60
2021/12/24 05:53:39;;;;;;;10.48;5.12;;;;;;;-6.17;53.35;99971.83;1703551;79;21175;-63
2021/12/24 05:56:10;;;;;;;13.25;5.58;;;;;;;-6.14;53.33;99971.77;1753329;79;21030;-61
2021/12/24 05:58:37;;;;;;;13.48;5.97;;;;;;;-6.08;53.50;99977.24;1733165;80;21022;-62
2021/12/24 06:01:04;;;;;;;11.68;6.35;;;;;;;-6.00;53.53;99972.79;1750692;80;21311;-62
2021/12/24 06:03:46;;;;;;;11.93;5.42;;;;;;;-5.94;53.46;99977.78;1752935;80;21133;-61
2021/12/24 06:06:12;;;;;;;10.68;5.75;;;;;;;-5.93;53.31;99974.36;1751274;80;21083;-62
2021/12/24 06:08:39;;;;;;;11.18;5.33;;;;;;;-5.91;53.39;99974.33;1755449;80;21059;-61
2021/12/24 06:11:05;;;;;;;13.20;5.65;;;;;;;-5.90;53.24;99970.87;1749905;79;21721;-62
2021/12/24 06:13:32;;;;;;;12.55;5.92;;;;;;;-5.89;53.36;99967.45;1750634;79;21097;-62
2021/12/24 06:15:59;;;;;;;13.18;6.60;;;;;;;-5.87;53.38;99966.98;1691710;82;21344;-61
2021/12/24 06:18:28;;;;;;;12.37;6.58;;;;;;;-5.88;53.45;99962.30;1733973;80;21035;-61
2021/12/24 06:20:56;;;;;;;12.85;5.78;;;;;;;-5.88;53.54;99957.17;1750806;79;21043;-63
2021/12/24 06:23:24;;;;;;;9.15;5.03;;;;;;;-5.85;53.53;99956.25;1756219;80;20984;-62
2021/12/24 06:25:52;;;;;;;12.45;4.90;;;;;;;-5.85;53.64;99953.28;1755676;80;21003;-61
2021/12/24 06:28:19;;;;;;;12.35;5.00;;;;;;;-5.85;53.51;99940.47;1756793;79;21482;-61
2021/12/24 06:30:46;;;;;;;13.70;5.95;;;;;;;-5.85;53.70;99934.06;1750450;80;21055;-62
2021/12/24 06:33:12;;;;;;;11.93;5.15;;;;;;;-5.80;53.84;99926.25;1754499;80;21070;-61
2021/12/24 06:35:39;;;;;;;20.72;5.78;;;;;;;-5.79;53.67;99927.51;1754443;80;21640;-60
2021/12/24 06:38:05;;;;;;;11.05;6.17;;;;;;;-5.77;53.67;99926.20;1753240;80;20915;-61
2021/12/24 06:40:33;;;;;;;15.43;6.80;;;;;;;-5.72;53.84;99915.41;1732888;80;21696;-60
2021/12/24 06:42:59;;;;;;;11.05;4.83;;;;;;;-5.66;53.93;99908.05;1681120;82;22327;-61
2021/12/24 06:45:26;;;;;;;19.35;5.87;;;;;;;-5.56;53.70;99899.70;1753913;80;21110;-60
2021/12/24 06:47:54;;;;;;;11.50;5.62;;;;;;;-5.56;53.61;99901.85;1754340;80;21117;-61
2021/12/24 06:50:21;;;;;;;12.85;5.80;;;;;;;-5.51;53.79;99900.48;1733540;80;22090;-62
2021/12/24 06:52:47;;;;;;;11.35;5.60;;;;;;;-5.44;53.66;99896.44;1741889;79;21042;-62
2021/12/24 06:55:15;;;;;;;11.22;5.62;;;;;;;-5.41;53.64;99892.53;1753712;80;20964;-62
2021/12/24 06:57:42;;;;;;;17.60;7.28;;;;;;;-5.38;53.70;99888.20;1757861;80;21027;-61
2021/12/24 07:00:12;;;;;;;14.30;5.53;;;;;;;-5.36;53.75;99876.19;1758179;79;21634;-61
2021/12/24 07:02:39;;;;;;;17.07;6.17;;;;;;;-5.30;53.66;99868.36;1744585;80;21570;-61
2021/12/24 07:05:06;;;;;;;12.47;5.90;;;;;;;-5.26;53.64;99854.61;1732332;80;21049;-61
2021/12/24 07:07:33;;;;;;;14.55;6.33;;;;;;;-5.24;53.57;99852.39;1733953;80;21018;-62
2021/12/24 07:09:59;;;;;;;10.08;6.28;;;;;;;-5.21;53.72;99838.66;1757480;80;21038;-61
2021/12/24 07:12:26;;;;;;;12.25;6.75;;;;;;;-5.16;53.69;99831.70;1758461;79;20965;-61
2021/12/24 07:14:53;;;;;;;10.78;5.75;;;;;;;-5.11;53.69;99824.73;1733069;80;21702;-61
2021/12/24 07:17:19;;;;;;;19.00;6.90;;;;;;;-5.09;53.43;99823.41;1762387;80;21058;-61
2021/12/24 07:19:45;;;;;;;13.78;5.92;;;;;;;-5.10;53.62;99821.27;1761947;80;21157;-61
2021/12/24 07:22:13;;;;;;;13.40;6.35;;;;;;;-5.05;53.87;99812.18;1762098;80;21125;-62
2021/12/24 07:24:40;;;;;;;12.75;6.15;;;;;;;-4.95;53.90;99812.34;1761963;79;21365;-61
2021/12/24 07:27:06;;;;;;;15.35;6.80;;;;;;;-4.86;53.70;99809.98;1744348;80;21114;-61
2021/12/24 07:29:33;;;;;;;11.60;6.28;;;;;;;-4.81;53.66;99800.88;1741340;80;21023;-62
2021/12/24 07:31:59;;;;;;;12.45;6.17;;;;;;;-4.80;53.66;99798.28;1732369;80;21191;-61
2021/12/24 07:34:26;;;;;;;17.20;6.53;;;;;;;-4.76;53.47;99797.75;1758357;79;21106;-61
2021/12/24 07:36:52;;;;;;;11.38;6.17;;;;;;;-4.76;53.78;99798.58;1733347;80;21085;-61
2021/12/24 07:39:19;;;;;;;10.25;4.60;;;;;;;-4.76;53.86;99787.48;1761781;80;21587;-61
2021/12/24 07:41:47;;;;;;;15.25;6.83;;;;;;;-4.73;53.90;99789.98;1758973;80;21113;-62
2021/12/24 07:44:17;;;;;;;12.45;6.10;;;;;;;-4.68;53.93;99788.95;1764795;80;21841;-62
2021/12/24 07:46:48;;;;;;;14.07;6.55;;;;;;;-4.61;53.87;99779.36;1764781;79;21003;-61
2021/12/24 07:49:29;;;;;;;14.78;5.42;;;;;;;-4.59;53.49;99780.19;1756832;79;21102;-61
2021/12/24 07:54:25;;;;;;;13.35;6.60;;;;;;;-4.68;53.96;99770.98;1740111;79;21134;-64
2021/12/24 07:56:51;;;;;;;12.20;5.33;;;;;;;-4.60;54.15;99769.95;1757591;79;22358;-62
2021/12/24 07:59:18;;;;;;;13.55;6.10;;;;;;;-4.54;53.99;99755.64;1745417;81;21086;-62
2021/12/24 08:01:45;;;;;;;15.78;5.78;;;;;;;-4.50;53.96;99749.10;1744770;80;20975;-61
2021/12/24 08:04:12;;;;;;;17.82;6.65;;;;;;;-4.45;54.02;99746.83;1743729;81;21742;-62
2021/12/24 08:06:40;;;;;;;9.38;5.65;;;;;;;-4.37;54.29;99744.47;1679693;83;21084;-60
2021/12/24 08:09:08;;;;;;;20.45;5.92;;;;;;;-4.25;54.29;99740.70;1745204;81;21159;-61
2021/12/24 08:13:26;;;;;;;14.73;5.53;;;;;;;-4.19;54.12;99726.81;1835191;75;22620;-63
2021/12/24 08:15:54;;;;;;;17.98;6.28;;;;;;;-4.24;54.30;99725.66;1816058;77;21066;-62
2021/12/24 08:18:20;;;;;;;14.47;6.08;;;;;;;-4.21;54.42;99719.61;1811621;77;21084;-62
2021/12/24 08:20:47;;;;;;;12.05;5.92;;;;;;;-4.19;54.44;99719.94;1760669;79;20959;-62
2021/12/24 08:23:13;;;;;;;11.88;5.87;;;;;;;-4.13;54.42;99712.06;1758991;79;21070;-62
2021/12/24 08:25:40;;;;;;;16.95;5.78;;;;;;;-4.06;54.42;99711.88;1780537;79;21058;-62
2021/12/24 08:28:07;;;;;;;12.50;5.65;;;;;;;-4.01;54.23;99705.70;1776368;78;21047;-61
2021/12/24 08:30:33;;;;;;;15.00;6.87;;;;;;;-3.98;54.25;99692.77;1779637;78;21201;-62
2021/12/24 08:33:01;;;;;;;11.83;5.80;;;;;;;-3.92;54.22;99684.00;1772844;79;21147;-62
2021/12/24 08:35:28;;;;;;;15.75;6.03;;;;;;;-3.83;54.24;99675.16;1769491;78;21085;-61
2021/12/24 08:37:55;;;;;;;10.13;5.58;;;;;;;-3.83;54.17;99672.59;1774701;79;22514;-62
2021/12/24 08:40:22;;;;;;;11.10;5.95;;;;;;;-3.82;54.08;99669.97;1782597;78;21117;-60
2021/12/24 08:42:50;;;;;;;11.35;5.40;;;;;;;-3.82;53.93;99660.14;1780144;78;23264;-61
2021/12/24 08:45:18;;;;;;;13.68;6.03;;;;;;;-3.81;54.24;99653.66;1776172;78;21368;-61
2021/12/24 08:47:45;;;;;;;12.73;5.22;;;;;;;-3.77;54.30;99655.69;1780335;78;22430;-60
2021/12/24 08:52:22;;;;;;;12.58;5.85;;;;;;;-3.68;54.12;99626.25;1792168;78;21862;-61
2021/12/24 08:54:49;;;;;;;18.00;5.50;;;;;;;-3.73;54.33;99618.72;1777432;79;21070;-61
2021/12/24 08:57:15;;;;;;;11.95;5.53;;;;;;;-3.67;54.46;99615.92;1745686;80;21075;-62
2021/12/24 08:59:42;;;;;;;9.68;5.40;;;;;;;-3.64;54.16;99611.96;1773993;80;21121;-62
2021/12/24 09:02:08;;;;;;;18.45;5.42;;;;;;;-3.63;54.38;99616.23;1764892;79;20935;-63
2021/12/24 09:04:35;;;;;;;15.38;5.92;;;;;;;-3.57;54.26;99610.02;1779198;80;21439;-60
2021/12/24 09:07:01;;;;;;;9.23;5.30;;;;;;;-3.64;54.41;99592.68;1774224;80;20982;-63
2021/12/24 09:09:29;;;;;;;8.58;4.78;;;;;;;-3.64;54.45;99593.96;1775743;79;21041;-64
2021/12/24 09:11:57;;;;;;;12.07;5.35;;;;;;;-3.59;54.45;99585.64;1773938;79;21354;-64
2021/12/24 09:14:25;;;;;;;11.83;4.83;;;;;;;-3.50;54.53;99570.79;1770542;78;21570;-61
2021/12/24 09:16:53;;;;;;;9.30;5.08;;;;;;;-3.45;54.65;99558.60;1772605;79;21097;-63
2021/12/24 09:19:24;;;;;;;9.40;4.97;;;;;;;-3.38;54.53;99551.05;1738679;80;21464;-63
2021/12/24 09:21:49;;;;;;;9.53;4.85;;;;;;;-3.28;54.59;99543.38;1774303;78;21152;-63
2021/12/24 09:24:18;;;;;;;11.88;5.08;;;;;;;-3.16;54.29;99531.83;1744067;80;21125;-62
2021/12/24 09:26:46;;;;;;;9.48;5.22;;;;;;;-3.10;54.15;99518.71;1773197;79;21598;-63
2021/12/24 09:29:12;;;;;;;9.93;5.12;;;;;;;-3.02;53.97;99515.86;1751554;80;21105;-63
2021/12/24 09:31:38;;;;;;;9.63;4.55;;;;;;;-3.00;53.93;99509.74;1763965;79;21031;-62
2021/12/24 09:34:05;;;;;;;16.27;5.92;;;;;;;-2.98;54.03;99500.67;1722284;83;21149;-62
2021/12/24 09:36:32;;;;;;;10.55;5.15;;;;;;;-2.93;54.16;99491.50;1740058;81;21069;-64
2021/12/24 09:39:05;;;;;;;8.13;4.92;;;;;;;-2.91;54.05;99492.27;1726638;82;21059;-66
2021/12/24 09:41:28;;;;;;;11.15;5.28;;;;;;;-2.89;54.26;99493.04;1689797;83;21074;-63
2021/12/24 09:43:58;;;;;;;9.28;4.10;;;;;;;-2.85;54.37;99487.72;1715733;81;21139;-63
2021/12/24 09:46:25;;;;;;;10.43;4.70;;;;;;;-2.84;54.36;99482.11;1739543;80;21164;-63
2021/12/24 09:48:51;;;;;;;9.08;4.08;;;;;;;-2.84;54.40;99473.96;1713604;82;21689;-64
2021/12/24 09:51:23;;;;;;;10.60;5.22;;;;;;;-2.85;54.53;99461.98;1726975;81;21083;-63
2021/12/24 09:53:49;;;;;;;12.30;4.90;;;;;;;-2.84;54.95;99454.65;1738632;79;21516;-63
2021/12/24 09:56:16;;;;;;;8.70;4.17;;;;;;;-2.81;54.85;99454.53;1709224;82;21046;-67
2021/12/24 09:58:43;;;;;;;9.30;5.08;;;;;;;-2.83;54.86;99447.30;1699512;82;21012;-62
2021/12/24 10:01:30;;;;;;;11.88;6.80;;;;;;;-2.83;55.07;99443.89;1737543;79;21118;-62
2021/12/24 10:04:07;;;;;;;10.55;5.53;;;;;;;-2.81;54.92;99442.09;1765019;79;21104;-63
2021/12/24 10:06:34;;;;;;;10.70;4.65;;;;;;;-2.84;55.20;99435.34;1756350;80;21478;-63
2021/12/24 10:09:09;;;;;;;11.97;5.53;;;;;;;-2.84;55.27;99431.48;1743450;80;21173;-63
2021/12/24 10:11:51;;;;;;;10.50;5.58;;;;;;;-2.78;55.46;99426.98;1761161;79;21078;-63
2021/12/24 10:14:20;;;;;;;11.28;4.78;;;;;;;-2.75;55.53;99423.83;1743713;80;20996;-64
2021/12/24 10:16:50;;;;;;;12.45;5.15;;;;;;;-2.75;55.45;99412.70;1743456;79;21559;-63
2021/12/24 10:19:19;;;;;;;9.00;4.67;;;;;;;-2.75;55.68;99403.23;1753169;79;21113;-63
2021/12/24 10:21:46;;;;;;;9.45;4.33;;;;;;;-2.72;55.75;99397.09;1756085;79;21051;-63
2021/12/24 10:24:19;;;;;;;9.90;4.83;;;;;;;-2.67;55.92;99400.34;1759410;79;21060;-64
2021/12/24 10:26:51;;;;;;;9.55;4.25;;;;;;;-2.63;56.09;99390.30;1739498;80;21122;-61
2021/12/24 10:29:20;;;;;;;9.58;4.85;;;;;;;-2.53;55.97;99389.00;1678297;82;21100;-62
2021/12/24 10:31:52;;;;;;;10.28;4.33;;;;;;;-2.44;55.72;99382.19;1758685;79;21114;-63
2021/12/24 10:34:34;;;;;;;10.43;5.75;;;;;;;-2.40;55.51;99371.73;1739226;80;21082;-62
2021/12/24 10:37:10;;;;;;;8.20;4.33;;;;;;;-2.39;55.43;99361.82;1756199;79;21137;-63
2021/12/24 10:39:42;;;;;;;9.35;4.37;;;;;;;-2.37;56.20;99362.16;1758214;79;21094;-64
2021/12/24 10:42:13;;;;;;;8.68;4.67;;;;;;;-2.33;55.62;99351.27;1738429;80;21090;-62
2021/12/24 10:44:41;;;;;;;12.00;4.78;;;;;;;-2.37;55.52;99347.98;1755310;80;21062;-63
2021/12/24 10:47:22;;;;;;;11.55;4.50;;;;;;;-2.33;55.56;99335.34;1757165;79;21564;-62
2021/12/24 10:50:04;;;;;;;9.03;5.08;;;;;;;-2.25;55.23;99318.27;1759504;79;21165;-62
2021/12/24 10:52:42;;;;;;;9.43;4.35;;;;;;;-2.32;55.25;99318.98;1752890;79;21109;-62
2021/12/24 10:55:08;;;;;;;8.53;4.72;;;;;;;-2.33;55.16;99310.03;1751692;80;21077;-63
2021/12/24 10:57:37;;;;;;;7.95;4.03;;;;;;;-2.35;55.33;99311.84;1758125;79;21574;-62
2021/12/24 11:00:18;;;;;;;8.48;4.30;;;;;;;-2.35;55.48;99310.56;1682746;83;21163;-63
2021/12/24 11:03:02;;;;;;;10.10;4.75;;;;;;;-2.35;55.39;99304.95;1745177;79;21955;-62
2021/12/24 11:05:43;;;;;;;12.15;6.10;;;;;;;-2.38;55.31;99296.52;1746806;80;20995;-62
2021/12/24 11:08:14;;;;;;;9.58;6.20;;;;;;;-2.36;55.37;99299.86;1743556;80;20976;-63
2021/12/24 11:10:45;;;;;;;11.22;5.20;;;;;;;-2.40;55.44;99295.30;1741491;79;21106;-63
2021/12/24 11:13:18;;;;;;;9.85;5.45;;;;;;;-2.38;55.53;99290.91;1765097;79;21062;-64
2021/12/24 11:15:48;;;;;;;9.73;5.37;;;;;;;-2.36;55.43;99277.95;1759053;79;20988;-63
2021/12/24 11:18:33;;;;;;;13.60;5.45;;;;;;;-2.39;55.63;99273.77;1757900;79;21398;-64
2021/12/24 11:21:10;;;;;;;11.97;5.67;;;;;;;-2.44;55.78;99267.55;1755287;80;21182;-64
2021/12/24 11:23:41;;;;;;;9.55;4.97;;;;;;;-2.41;55.88;99275.58;1748768;80;21055;-65
2021/12/24 11:26:11;;;;;;;11.60;7.12;;;;;;;-2.40;55.82;99264.38;1750188;79;21098;-63
2021/12/24 11:28:39;;;;;;;12.35;6.30;;;;;;;-2.37;55.91;99253.08;1751165;80;21140;-62
2021/12/24 11:31:12;;;;;;;11.55;5.92;;;;;;;-2.34;55.99;99254.24;1755010;79;21559;-63
2021/12/24 11:33:42;;;;;;;10.98;5.83;;;;;;;-2.30;55.97;99255.33;1746922;79;21078;-64
2021/12/24 11:36:12;;;;;;;13.05;6.03;;;;;;;-2.30;56.00;99262.23;1754813;79;21535;-63
2021/12/24 11:38:41;;;;;;;9.75;6.08;;;;;;;-2.28;56.19;99257.84;1753359;80;21004;-63
2021/12/24 11:41:13;;;;;;;12.35;6.70;;;;;;;-2.20;55.98;99260.05;1751494;79;21755;-64
2021/12/24 11:43:42;;;;;;;11.22;6.17;;;;;;;-2.22;56.01;99259.30;1726352;81;21035;-63
2021/12/24 11:46:11;;;;;;;13.38;7.28;;;;;;;-2.23;56.04;99250.73;1751887;80;21119;-62
2021/12/24 11:48:38;;;;;;;11.55;6.50;;;;;;;-2.20;56.21;99248.02;1753252;80;21049;-61
2021/12/24 11:51:15;;;;;;;11.95;6.28;;;;;;;-2.16;56.36;99238.41;1754198;79;22068;-63
2021/12/24 11:53:41;;;;;;;12.45;6.35;;;;;;;-2.12;56.23;99233.05;1740217;79;21235;-62
2021/12/24 11:56:11;;;;;;;12.82;6.28;;;;;;;-2.08;56.26;99222.96;1760899;79;21039;-63
2021/12/24 11:58:50;;;;;;;10.23;6.40;;;;;;;-2.06;56.23;99226.30;1704125;82;21513;-63
2021/12/24 12:01:18;;;;;;;13.13;5.40;;;;;;;-2.04;56.27;99226.69;1764342;79;21111;-62
2021/12/24 12:03:54;;;;;;;11.30;7.05;;;;;;;-2.03;56.32;99216.73;1742440;80;21113;-61
2021/12/24 12:06:29;;;;;;;9.38;5.15;;;;;;;-2.03;56.48;99211.59;1760653;79;21242;-63
2021/12/24 12:08:57;;;;;;;10.28;5.83;;;;;;;-2.03;56.51;99213.73;1777230;79;21070;-62
2021/12/24 12:11:28;;;;;;;13.43;6.97;;;;;;;-2.00;56.46;99209.72;1768531;79;21124;-62
2021/12/24 12:14:01;;;;;;;12.80;5.62;;;;;;;-1.99;56.69;99201.53;1730552;80;21016;-61
2021/12/24 12:16:53;;;;;;;11.08;5.67;;;;;;;-1.93;56.74;99205.12;1703275;82;21098;-60
2021/12/24 12:19:46;;;;;;;10.50;5.97;;;;;;;-1.89;56.58;99199.72;1761523;79;21541;-60
2021/12/24 12:24:57;;;;;;;13.60;6.45;;;;;;;-1.79;56.77;99195.42;1771194;79;20976;-64
2021/12/24 12:27:54;;;;;;;11.38;6.12;;;;;;;-1.73;56.61;99193.38;1748546;79;21048;-63
2021/12/24 12:30:34;;;;;;;12.05;6.10;;;;;;;-1.66;56.62;99188.77;1767733;79;21062;-61
2021/12/24 12:33:18;;;;;;;9.80;5.80;;;;;;;-1.63;56.54;99183.89;1741833;79;21042;-61
2021/12/24 12:35:51;;;;;;;10.93;6.12;;;;;;;-1.61;56.54;99182.92;1767114;79;21575;-61
2021/12/24 12:38:34;;;;;;;13.00;5.95;;;;;;;-1.61;56.51;99173.89;1744418;79;21023;-61
2021/12/24 12:41:32;;;;;;;13.45;6.10;;;;;;;-1.59;56.46;99172.06;1756533;79;21057;-64
2021/12/24 12:43:57;;;;;;;9.30;5.17;;;;;;;-1.61;56.54;99182.09;1737833;79;21070;-62
2021/12/24 12:46:30;;;;;;;9.08;5.55;;;;;;;-1.64;56.55;99187.41;1741621;80;21723;-62
2021/12/24 12:48:55;;;;;;;9.95;5.85;;;;;;;-1.70;56.43;99184.21;1765602;79;21042;-61
2021/12/24 12:51:43;;;;;;;11.22;5.25;;;;;;;-1.77;56.54;99185.40;1729499;80;21090;-61
2021/12/24 12:54:48;;;;;;;10.30;5.40;;;;;;;-1.81;56.69;99189.51;1693290;82;21042;-60
2021/12/24 12:57:25;;;;;;;7.50;4.28;;;;;;;-1.83;56.96;99180.55;1738894;80;21606;-60
2021/12/24 13:00:19;;;;;;;10.28;6.05;;;;;;;-1.88;56.96;99164.01;1742746;80;21974;-60
2021/12/24 13:05:45;;;;;;;10.93;6.40;;;;;;;-1.89;57.13;99151.19;1769303;79;21539;-60
2021/12/24 13:08:23;;;;;;;11.55;5.58;;;;;;;-1.89;57.50;99146.86;1743718;79;21066;-61
2021/12/24 13:11:10;;;;;;;10.05;6.08;;;;;;;-1.86;57.49;99142.02;1739405;79;22107;-60
2021/12/24 13:13:56;;;;;;;;;;;;;;;-1.83;57.53;99132.85;1768347;79;21149;-61
2021/12/24 13:16:24;;;;;;;12.43;5.97;;;;;;;-1.82;57.46;99119.03;1757779;79;20195;-60
2021/12/24 13:19:04;;;;;;;11.30;6.05;;;;;;;-1.84;57.59;99111.01;1768404;79;21037;-61
2021/12/24 13:24:14;;;;;;;8.60;5.03;;;;;;;-1.84;57.69;99095.53;1762013;79;21066;-60
2021/12/24 13:26:44;;;;;;;11.70;6.25;;;;;;;-1.88;57.75;99090.98;1766916;79;21117;-60
2021/12/24 13:29:16;;;;;;;11.97;5.78;;;;;;;-1.94;57.84;99088.23;1764742;79;21603;-60
2021/12/24 13:31:51;;;;;;;10.63;5.45;;;;;;;-1.96;58.04;99073.77;1772662;79;21058;-61